createdAt,value
2022-11-01T00:02:08.755Z,64.73
2022-11-01T00:04:36.058Z,47.47
2022-11-01T00:07:03.575Z,31.70
2022-11-01T00:09:30.976Z,35.67
2022-11-01T00:11:59.623Z,43.17
2022-11-01T00:14:27.179Z,61.70
2022-11-01T00:16:54.437Z,52.17
2022-11-01T00:19:21.812Z,49.73
2022-11-01T00:21:49.121Z,54.43
2022-11-01T00:24:35.221Z,82.83
2022-11-01T00:27:08.459Z,44.20
2022-11-01T00:29:54.331Z,57.33
2022-11-01T00:32:21.617Z,67.63
2022-11-01T00:34:48.901Z,51.40
2022-11-01T00:37:16.135Z,64.53
2022-11-01T00:39:43.305Z,73.67
2022-11-01T00:42:22.746Z,60.30
2022-11-01T00:45:18.185Z,55.00
2022-11-01T00:47:49.303Z,70.80
2022-11-01T00:50:16.775Z,83.53
2022-11-01T00:52:43.975Z,66.57
2022-11-01T00:55:11.281Z,66.07
2022-11-01T00:57:38.669Z,55.80
2022-11-01T01:00:24.344Z,65.13
2022-11-01T01:03:09.892Z,73.80
2022-11-01T01:05:37.537Z,54.37
2022-11-01T01:08:04.999Z,50.47
2022-11-01T01:10:32.287Z,69.07
2022-11-01T01:12:59.899Z,64.37
2022-11-01T01:15:44.664Z,50.03
2022-11-01T01:18:30.190Z,40.80
2022-11-01T01:21:05.143Z,36.67
2022-11-01T01:23:32.482Z,32.67
2022-11-01T01:26:01.110Z,28.77
2022-11-01T01:28:31.156Z,57.20
2022-11-01T01:31:01.066Z,31.60
2022-11-01T01:33:28.459Z,25.93
2022-11-01T01:36:14.188Z,34.50
2022-11-01T01:38:41.463Z,34.00
2022-11-01T01:41:27.589Z,30.20
2022-11-01T01:43:54.886Z,40.93
2022-11-01T01:46:22.233Z,51.57
2022-11-01T01:48:55.076Z,43.67
2022-11-01T01:51:26.546Z,45.40
2022-11-01T01:54:12.546Z,43.73
2022-11-01T01:56:39.836Z,30.30
2022-11-01T01:59:10.403Z,86.67
2022-11-01T02:01:42.305Z,76.43
2022-11-01T02:04:18.481Z,61.97
2022-11-01T02:06:46.037Z,42.23
2022-11-01T02:09:15.742Z,32.17
2022-11-01T02:12:02.613Z,34.30
2022-11-01T02:14:44.354Z,32.03
2022-11-01T02:17:42.795Z,34.43
2022-11-01T02:20:22.211Z,26.07
2022-11-01T02:26:39.354Z,52.37
2022-11-01T02:29:19.863Z,28.90
2022-11-01T02:32:15.391Z,41.07
2022-11-01T02:35:06.805Z,23.83
2022-11-01T02:38:00.254Z,24.47
2022-11-01T02:40:39.886Z,61.13
2022-11-01T02:43:16.158Z,31.00
2022-11-01T02:45:50.854Z,28.37
2022-11-01T02:49:08.331Z,29.57
2022-11-01T02:51:35.409Z,25.07
2022-11-01T02:54:12.634Z,27.97
2022-11-01T02:57:03.866Z,44.93
2022-11-01T02:59:43.226Z,43.23
2022-11-01T03:02:42.041Z,43.83
2022-11-01T03:08:10.453Z,23.17
2022-11-01T03:11:11.514Z,35.07
2022-11-01T03:14:02.698Z,36.77
2022-11-01T03:16:56.130Z,30.13
2022-11-01T03:19:37.991Z,26.30
2022-11-01T03:22:20.530Z,21.10
2022-11-01T03:25:38.619Z,28.33
2022-11-01T03:28:32.147Z,24.67
2022-11-01T03:31:10.623Z,23.30
2022-11-01T03:34:14.749Z,19.70
2022-11-01T03:37:09.370Z,25.90
2022-11-01T03:39:53.559Z,25.33
2022-11-01T03:42:23.918Z,19.57
2022-11-01T03:45:02.786Z,29.57
2022-11-01T03:50:32.706Z,25.17
2022-11-01T03:53:03.022Z,29.60
2022-11-01T03:55:30.431Z,16.47
2022-11-01T03:58:00.070Z,13.30
2022-11-01T04:00:36.520Z,25.60
2022-11-01T04:03:05.385Z,16.77
2022-11-01T04:06:10.924Z,17.57
2022-11-01T04:08:48.501Z,17.20
2022-11-01T04:11:31.301Z,14.83
2022-11-01T04:14:18.704Z,17.10
2022-11-01T04:17:22.858Z,17.23
2022-11-01T04:20:08.620Z,18.67
2022-11-01T04:22:41.667Z,19.73
2022-11-01T04:25:09.049Z,16.03
2022-11-01T04:30:27.961Z,23.77
2022-11-01T04:32:55.270Z,24.13
2022-11-01T04:35:23.247Z,24.30
2022-11-01T04:37:57.752Z,25.30
2022-11-01T04:40:26.448Z,22.13
2022-11-01T04:42:53.686Z,25.97
2022-11-01T04:45:21.494Z,22.30
2022-11-01T04:47:52.507Z,28.70
2022-11-01T04:50:20.768Z,37.37
2022-11-01T04:52:48.452Z,33.27
2022-11-01T04:55:18.464Z,23.77
2022-11-01T04:57:45.762Z,20.80
2022-11-01T05:00:14.217Z,23.70
2022-11-01T05:03:39.435Z,17.53
2022-11-01T05:06:25.205Z,18.30
2022-11-01T05:08:55.231Z,21.27
2022-11-01T05:11:41.183Z,21.73
2022-11-01T05:14:09.051Z,19.20
2022-11-01T05:16:38.096Z,17.50
2022-11-01T05:19:05.783Z,15.27
2022-11-01T05:24:40.149Z,13.43
2022-11-01T05:29:54.588Z,14.67
2022-11-01T05:32:22.289Z,12.33
2022-11-01T05:35:02.417Z,14.47
2022-11-01T05:37:30.313Z,17.37
2022-11-01T05:39:58.522Z,11.97
2022-11-01T05:42:26.395Z,12.93
2022-11-01T05:45:12.959Z,15.20
2022-11-01T05:56:09.299Z,11.87
2022-11-01T05:59:13.186Z,11.27
2022-11-01T06:01:44.001Z,13.63
2022-11-01T06:04:46.186Z,15.23
2022-11-01T06:13:30.717Z,15.17
2022-11-01T06:16:09.167Z,11.80
2022-11-01T06:18:36.531Z,9.60
2022-11-01T06:25:20.181Z,9.23
2022-11-01T06:31:03.071Z,9.40
2022-11-01T06:33:37.031Z,9.77
2022-11-01T06:36:30.466Z,10.50
2022-11-01T06:39:25.100Z,12.37
2022-11-01T06:45:22.737Z,8.47
2022-11-01T06:54:05.453Z,12.90
2022-11-01T06:56:32.778Z,24.37
2022-11-01T06:59:18.907Z,13.50
2022-11-01T07:02:14.158Z,11.10
2022-11-01T07:05:35.972Z,9.63
2022-11-01T07:08:13.923Z,11.27
2022-11-01T07:10:59.392Z,11.00
2022-11-01T07:13:34.446Z,9.00
2022-11-01T07:16:04.226Z,12.13
2022-11-01T07:18:37.639Z,10.17
2022-11-01T07:21:28.904Z,9.47
2022-11-01T07:24:05.945Z,8.57
2022-11-01T07:26:44.907Z,11.27
2022-11-01T07:29:12.540Z,8.80
2022-11-01T07:32:06.450Z,10.80
2022-11-01T07:34:42.678Z,11.10
2022-11-01T07:40:07.626Z,8.73
2022-11-01T07:42:46.754Z,7.27
2022-11-01T07:45:53.615Z,8.07
2022-11-01T07:48:50.464Z,6.57
2022-11-01T07:51:18.521Z,8.30
2022-11-01T07:56:42.707Z,9.03
2022-11-01T07:59:23.352Z,18.97
2022-11-01T08:02:07.951Z,13.50
2022-11-01T08:05:03.265Z,11.33
2022-11-01T08:07:57.984Z,8.03
2022-11-01T08:14:17.844Z,9.97
2022-11-01T08:16:28.567Z,11.00
2022-11-01T08:19:01.980Z,9.70
2022-11-01T08:22:07.048Z,8.30
2022-11-01T08:24:53.423Z,12.10
2022-11-01T08:27:23.990Z,8.73
2022-11-01T08:32:46.667Z,8.75
2022-11-01T08:35:33.530Z,9.83
2022-11-01T08:38:01.912Z,7.50
2022-11-01T08:41:11.395Z,8.57
2022-11-01T08:44:34.356Z,9.25
2022-11-01T08:47:30.138Z,18.57
2022-11-01T08:50:11.349Z,11.10
2022-11-01T08:52:57.369Z,7.65
2022-11-01T08:55:49.790Z,10.75
2022-11-01T08:58:37.516Z,5.77
2022-11-01T09:01:15.665Z,7.40
2022-11-01T09:07:00.037Z,11.60
2022-11-01T09:09:31.720Z,6.77
2022-11-01T09:12:04.920Z,16.33
2022-11-01T09:14:42.999Z,12.15
2022-11-01T09:17:16.071Z,10.55
2022-11-01T09:19:49.145Z,10.32
2022-11-01T09:22:27.005Z,11.25
2022-11-01T09:24:58.882Z,26.55
2022-11-01T09:27:40.896Z,8.63
2022-11-01T09:30:32.784Z,12.48
2022-11-01T09:33:07.643Z,9.68
2022-11-01T09:35:37.956Z,7.75
2022-11-01T09:38:12.763Z,8.63
2022-11-01T09:40:54.081Z,8.98
2022-11-01T09:43:25.281Z,37.10
2022-11-01T09:46:16.182Z,21.33
2022-11-01T09:48:45.564Z,6.88
2022-11-01T09:51:22.784Z,17.88
2022-11-01T10:23:58.474Z,5.40
2022-11-01T10:26:35.392Z,5.10
2022-11-01T10:29:16.115Z,7.15
2022-11-01T10:31:58.599Z,4.68
2022-11-01T10:34:45.125Z,9.95
2022-11-01T10:38:03.929Z,6.00
2022-11-01T10:41:26.493Z,10.15
2022-11-01T10:44:11.792Z,19.88
2022-11-01T11:05:59.878Z,6.40
2022-11-01T11:08:30.501Z,4.78
2022-11-01T11:11:15.689Z,34.08
2022-11-01T11:14:19.176Z,22.95
2022-11-01T11:16:54.010Z,15.70
2022-11-01T11:19:45.980Z,5.65
2022-11-01T11:22:27.175Z,20.88
2022-11-01T11:25:02.043Z,4.65
2022-11-01T11:27:37.941Z,6.20
2022-11-01T11:30:08.707Z,88.97
2022-11-01T11:32:50.308Z,4.30
2022-11-01T11:36:01.907Z,4.95
2022-11-01T11:39:05.478Z,6.32
2022-11-01T11:41:52.908Z,5.15
2022-11-01T11:44:35.543Z,3.03
2022-11-01T11:48:08.236Z,3.85
2022-11-01T11:54:38.270Z,6.18
2022-11-01T11:57:30.311Z,20.15
2022-11-01T12:00:01.375Z,3.30
2022-11-01T12:02:36.679Z,30.23
2022-11-01T12:05:52.657Z,3.47
2022-11-01T12:08:38.561Z,3.25
2022-11-01T12:11:06.362Z,2.75
2022-11-01T12:13:45.759Z,2.88
2022-11-01T12:16:20.659Z,7.65
2022-11-01T12:18:49.789Z,2.20
2022-11-01T12:21:40.478Z,2.10
2022-11-01T12:24:27.482Z,2.88
2022-11-01T12:27:10.453Z,15.82
2022-11-01T12:29:43.701Z,4.55
2022-11-01T12:32:48.764Z,7.95
2022-11-01T12:35:56.706Z,4.15
2022-11-01T12:38:50.987Z,5.18
2022-11-01T12:41:30.343Z,4.57
2022-11-01T12:44:01.754Z,4.10
2022-11-01T12:46:55.963Z,5.57
2022-11-01T12:49:32.330Z,9.10
2022-11-01T12:52:21.375Z,14.52
2022-11-01T12:55:14.241Z,5.03
2022-11-01T12:57:57.637Z,3.42
2022-11-01T13:00:34.276Z,2.20
2022-11-01T13:03:21.217Z,1.83
2022-11-01T13:06:36.789Z,4.15
2022-11-01T13:09:19.684Z,7.03
2022-11-01T13:12:38.277Z,4.43
2022-11-01T13:15:27.290Z,3.08
2022-11-01T13:18:01.493Z,6.82
2022-11-01T13:20:53.305Z,5.78
2022-11-01T13:24:25.108Z,3.13
2022-11-01T13:27:17.298Z,4.22
2022-11-01T13:30:11.146Z,3.50
2022-11-01T13:33:05.857Z,3.30
2022-11-01T13:36:11.331Z,3.28
2022-11-01T13:38:56.809Z,4.20
2022-11-01T13:42:13.232Z,1.95
2022-11-01T13:45:20.454Z,4.40
2022-11-01T13:48:24.115Z,7.38
2022-11-01T13:51:36.215Z,3.58
2022-11-01T13:55:00.044Z,2.53
2022-11-01T13:57:28.085Z,4.07
2022-11-01T14:00:01.132Z,3.03
2022-11-01T14:02:31.261Z,6.22
2022-11-01T14:05:09.550Z,2.83
2022-11-01T14:08:07.020Z,3.92
2022-11-01T14:10:46.660Z,2.75
2022-11-01T14:13:25.118Z,3.40
2022-11-01T14:15:55.490Z,3.40
2022-11-01T14:19:20.294Z,2.80
2022-11-01T14:21:53.646Z,2.13
2022-11-01T14:25:08.668Z,3.25
2022-11-01T14:27:37.557Z,3.72
2022-11-01T14:30:17.791Z,3.38
2022-11-01T14:33:12.976Z,3.40
2022-11-01T14:35:57.186Z,4.07
2022-11-01T14:38:53.922Z,5.80
2022-11-01T14:41:48.584Z,3.75
2022-11-01T14:44:37.442Z,3.97
2022-11-01T14:47:37.022Z,5.03
2022-11-01T14:50:23.991Z,3.28
2022-11-01T14:53:38.512Z,2.60
2022-11-01T14:56:22.900Z,3.72
2022-11-01T14:58:51.255Z,4.72
2022-11-01T15:01:25.379Z,2.05
2022-11-01T15:04:06.584Z,3.95
2022-11-01T15:06:33.835Z,2.58
2022-11-01T15:09:26.892Z,4.00
2022-11-01T15:12:15.938Z,3.53
2022-11-01T15:14:50.952Z,2.30
2022-11-01T15:17:33.954Z,4.65
2022-11-01T15:20:13.744Z,2.97
2022-11-01T15:22:42.714Z,2.65
2022-11-01T15:28:45.317Z,3.63
2022-11-01T15:31:15.795Z,3.28
2022-11-01T15:34:04.816Z,3.43
2022-11-01T15:36:39.439Z,2.57
2022-11-01T15:39:21.262Z,2.57
2022-11-01T15:41:49.847Z,2.13
2022-11-01T15:44:22.555Z,4.30
2022-11-01T15:46:52.449Z,2.93
2022-11-01T15:49:27.145Z,3.40
2022-11-01T15:52:16.162Z,3.37
2022-11-01T15:55:09.495Z,3.30
2022-11-01T15:57:47.798Z,1.97
2022-11-01T16:00:17.939Z,3.73
2022-11-01T16:02:54.726Z,2.90
2022-11-01T16:05:35.089Z,1.93
2022-11-01T16:08:37.244Z,2.77
2022-11-01T16:11:33.545Z,3.80
2022-11-01T16:14:37.250Z,2.97
2022-11-01T16:17:33.797Z,3.90
2022-11-01T16:20:05.573Z,3.60
2022-11-01T16:26:08.698Z,6.17
2022-11-01T16:28:44.367Z,4.60
2022-11-01T16:31:41.858Z,3.77
2022-11-01T16:34:24.699Z,6.77
2022-11-01T16:36:52.789Z,4.20
2022-11-01T16:39:53.959Z,3.17
2022-11-01T16:42:36.880Z,4.77
2022-11-01T16:45:31.641Z,4.73
2022-11-01T16:48:06.670Z,5.37
2022-11-01T16:50:34.169Z,3.17
2022-11-01T16:53:06.947Z,3.30
2022-11-01T16:55:36.463Z,6.30
2022-11-01T16:58:15.686Z,3.60
2022-11-01T17:00:52.993Z,3.57
2022-11-01T17:03:43.253Z,3.00
2022-11-01T17:06:21.151Z,3.30
2022-11-01T17:08:54.503Z,2.77
2022-11-01T17:11:24.409Z,3.50
2022-11-01T17:13:57.101Z,2.67
2022-11-01T17:16:27.694Z,2.60
2022-11-01T17:19:19.437Z,5.00
2022-11-01T17:22:02.172Z,6.27
2022-11-01T17:24:31.091Z,1.37
2022-11-01T17:27:07.793Z,2.23
2022-11-01T17:29:35.047Z,2.13
2022-11-01T17:32:09.672Z,2.60
2022-11-01T17:34:54.013Z,3.33
2022-11-01T17:37:37.083Z,5.57
2022-11-01T17:40:27.785Z,3.73
2022-11-01T17:42:55.289Z,4.47
2022-11-01T17:45:32.264Z,3.93
2022-11-01T17:47:59.494Z,2.77
2022-11-01T17:50:37.668Z,3.07
2022-11-01T17:53:17.399Z,3.43
2022-11-01T17:55:45.823Z,3.10
2022-11-01T17:58:16.535Z,5.47
2022-11-01T18:00:43.708Z,5.13
2022-11-01T18:03:37.353Z,4.80
2022-11-01T18:06:04.757Z,5.70
2022-11-01T18:08:45.228Z,5.33
2022-11-01T18:11:31.062Z,5.00
2022-11-01T18:14:08.791Z,6.23
2022-11-01T18:17:01.212Z,5.03
2022-11-01T18:19:46.569Z,5.67
2022-11-01T18:23:06.775Z,4.53
2022-11-01T18:25:53.609Z,3.83
2022-11-01T18:28:27.790Z,3.90
2022-11-01T18:31:36.888Z,4.27
2022-11-01T18:34:34.159Z,3.10
2022-11-01T18:37:18.975Z,3.33
2022-11-01T18:40:17.577Z,4.80
2022-11-01T18:43:16.119Z,3.23
2022-11-01T18:46:04.442Z,8.33
2022-11-01T18:48:37.845Z,4.40
2022-11-01T18:51:24.376Z,4.07
2022-11-01T18:54:21.253Z,5.10
2022-11-01T18:57:10.612Z,3.23
2022-11-01T18:59:50.002Z,2.50
2022-11-01T19:02:27.386Z,3.03
2022-11-01T19:05:11.105Z,5.23
2022-11-01T19:08:10.153Z,8.10
2022-11-01T19:10:44.544Z,8.33
2022-11-01T19:13:26.074Z,6.63
2022-11-01T19:15:54.425Z,3.43
2022-11-01T19:18:30.943Z,5.03
2022-11-01T19:21:00.966Z,4.13
2022-11-01T19:23:40.202Z,5.10
2022-11-01T19:26:36.571Z,4.17
2022-11-01T19:29:16.972Z,5.60
2022-11-01T19:32:34.506Z,4.53
2022-11-01T19:35:21.759Z,4.37
2022-11-01T19:38:15.301Z,4.00
2022-11-01T19:48:07.496Z,3.03
2022-11-01T19:53:50.887Z,2.80
2022-11-01T19:57:10.977Z,3.83
2022-11-01T20:02:50.786Z,11.93
2022-11-01T20:13:09.758Z,3.40
2022-11-01T20:26:13.739Z,4.00
2022-11-01T20:28:43.444Z,8.17
2022-11-01T20:31:39.361Z,4.37
2022-11-01T20:34:18.711Z,3.77
2022-11-01T20:37:43.704Z,5.27
2022-11-01T20:40:25.247Z,4.07
2022-11-01T20:43:07.278Z,4.80
2022-11-01T20:45:45.647Z,2.63
2022-11-01T20:49:15.981Z,3.20
2022-11-01T20:52:49.372Z,3.80
2022-11-01T20:55:33.516Z,2.77
2022-11-01T21:05:32.078Z,3.13
2022-11-01T21:08:56.507Z,2.77
2022-11-01T21:11:53.558Z,4.33
2022-11-01T21:14:46.555Z,5.40
2022-11-01T21:17:35.071Z,4.10
2022-11-01T21:20:23.478Z,4.70
2022-11-01T21:26:43.538Z,2.63
2022-11-01T22:35:47.240Z,4.90
2022-11-01T22:38:22.911Z,4.03
2022-11-01T22:41:10.813Z,5.00
2022-11-01T22:43:55.768Z,4.13
2022-11-01T22:52:20.173Z,8.73
2022-11-01T22:54:48.655Z,7.33
2022-11-01T22:57:21.052Z,5.57
2022-11-01T22:59:55.651Z,4.23
2022-11-01T23:05:14.538Z,4.53
2022-11-01T23:07:50.111Z,5.80
2022-11-01T23:10:45.995Z,3.63
2022-11-01T23:17:16.282Z,5.83
2022-11-01T23:19:43.671Z,4.53
2022-11-01T23:22:17.299Z,4.80
2022-11-01T23:24:44.972Z,5.57
2022-11-01T23:27:12.319Z,9.07
2022-11-01T23:29:42.870Z,6.83
2022-11-01T23:32:11.860Z,5.70
2022-11-01T23:34:49.354Z,3.63
2022-11-01T23:46:48.961Z,5.30
2022-11-01T23:49:23.543Z,4.13
2022-11-01T23:51:51.845Z,4.40
2022-11-01T23:54:35.470Z,5.83
2022-11-01T23:57:02.948Z,5.20
2022-11-01T23:59:37.937Z,9.73
